createdAt,value
2023-02-19T00:01:35.598Z,11.73
2023-02-19T00:06:40.729Z,11.82
2023-02-19T00:11:46.556Z,12.35
2023-02-19T00:16:54.274Z,12.60
2023-02-19T00:21:59.301Z,11.95
2023-02-19T00:27:04.287Z,13.30
2023-02-19T00:32:12.877Z,12.48
2023-02-19T00:37:18.053Z,13.10
2023-02-19T00:42:23.056Z,12.60
2023-02-19T00:47:30.953Z,12.65
2023-02-19T00:52:35.920Z,12.48
2023-02-19T00:57:40.861Z,12.80
2023-02-19T01:02:48.541Z,13.15
2023-02-19T01:07:53.521Z,12.82
2023-02-19T01:12:59.756Z,12.32
2023-02-19T01:18:07.721Z,12.20
2023-02-19T01:23:14.280Z,12.00
2023-02-19T01:28:19.343Z,12.23
2023-02-19T01:33:29.309Z,11.52
2023-02-19T01:38:34.422Z,11.75
2023-02-19T01:43:59.443Z,11.15
2023-02-19T01:49:10.125Z,11.25
2023-02-19T01:54:16.266Z,12.02
2023-02-19T01:59:21.989Z,10.80
2023-02-19T02:04:30.573Z,13.80
2023-02-19T02:09:50.933Z,10.65
2023-02-19T02:14:55.996Z,10.80
2023-02-19T02:20:23.143Z,11.18
2023-02-19T02:25:44.235Z,11.18
2023-02-19T02:30:53.963Z,11.38
2023-02-19T02:36:02.628Z,11.18
2023-02-19T02:41:08.442Z,11.13
2023-02-19T02:46:21.197Z,12.52
2023-02-19T02:51:30.652Z,11.80
2023-02-19T02:56:36.276Z,12.02
2023-02-19T03:01:58.683Z,12.93
2023-02-19T03:07:09.105Z,10.50
2023-02-19T03:12:28.939Z,10.60
2023-02-19T03:17:52.577Z,10.38
2023-02-19T03:22:58.289Z,11.07
2023-02-19T03:28:05.120Z,11.18
2023-02-19T03:33:14.696Z,10.55
2023-02-19T03:38:21.586Z,11.52
2023-02-19T03:43:30.712Z,10.70
2023-02-19T03:48:40.312Z,10.75
2023-02-19T03:53:53.541Z,10.18
2023-02-19T03:59:02.236Z,9.88
2023-02-19T04:04:12.730Z,9.88
2023-02-19T04:09:18.465Z,9.90
2023-02-19T04:14:27.004Z,9.52
2023-02-19T04:19:39.813Z,9.70
2023-02-19T04:24:48.111Z,9.23
2023-02-19T04:29:53.350Z,9.02
2023-02-19T04:35:01.314Z,8.93
2023-02-19T04:40:06.850Z,9.40
2023-02-19T04:45:12.324Z,9.10
2023-02-19T04:50:20.226Z,8.65
2023-02-19T04:55:25.392Z,8.10
2023-02-19T05:00:30.715Z,8.00
2023-02-19T05:05:38.402Z,7.90
2023-02-19T05:10:43.486Z,8.77
2023-02-19T05:15:59.400Z,8.13
2023-02-19T05:21:07.334Z,8.43
2023-02-19T05:26:17.392Z,8.55
2023-02-19T05:31:23.036Z,8.00
2023-02-19T05:36:38.900Z,8.52
2023-02-19T05:41:44.105Z,8.88
2023-02-19T05:46:49.196Z,8.93
2023-02-19T05:51:57.279Z,8.13
2023-02-19T05:57:02.440Z,8.15
2023-02-19T06:02:07.620Z,8.85
2023-02-19T06:07:15.583Z,8.50
2023-02-19T06:12:23.518Z,13.05
2023-02-19T06:17:33.701Z,11.20
2023-02-19T06:22:38.891Z,9.32
2023-02-19T06:27:47.059Z,9.52
2023-02-19T06:38:05.892Z,9.88
2023-02-19T06:43:13.589Z,8.82
2023-02-19T06:48:21.668Z,9.18
2023-02-19T06:58:36.059Z,8.63
2023-02-19T07:03:41.030Z,10.25
2023-02-19T07:08:46.372Z,10.10
2023-02-19T07:13:58.017Z,9.57
2023-02-19T07:19:16.615Z,9.90
2023-02-19T07:24:22.814Z,10.65
2023-02-19T07:29:32.027Z,8.18
2023-02-19T07:34:37.563Z,8.65
2023-02-19T07:39:42.695Z,7.75
2023-02-19T07:44:53.485Z,7.50
2023-02-19T07:49:58.677Z,7.40
2023-02-19T07:55:10.297Z,8.32
2023-02-19T08:00:20.090Z,9.35
2023-02-19T08:05:25.299Z,8.55
2023-02-19T08:10:43.189Z,8.63
2023-02-19T08:15:52.449Z,8.02
2023-02-19T08:20:58.236Z,9.57
2023-02-19T08:26:10.513Z,6.72
2023-02-19T08:31:19.140Z,7.10
2023-02-19T08:36:24.880Z,8.15
2023-02-19T08:41:31.158Z,6.47
2023-02-19T08:46:42.509Z,6.38
2023-02-19T08:51:48.087Z,6.05
2023-02-19T08:56:53.759Z,5.65
2023-02-19T09:02:05.257Z,4.90
2023-02-19T09:07:11.941Z,5.25
2023-02-19T09:12:18.669Z,5.90
2023-02-19T09:17:27.130Z,4.97
2023-02-19T09:22:32.735Z,5.80
2023-02-19T09:27:38.372Z,5.45
2023-02-19T09:32:46.577Z,6.65
2023-02-19T09:37:52.722Z,5.20
2023-02-19T09:42:59.769Z,5.97
2023-02-19T09:48:11.917Z,5.22
2023-02-19T09:53:20.682Z,6.20
2023-02-19T09:58:31.832Z,7.38
2023-02-19T10:03:42.930Z,6.03
2023-02-19T10:08:51.617Z,6.25
2023-02-19T10:14:02.061Z,5.88
2023-02-19T10:19:12.147Z,5.90
2023-02-19T10:24:22.044Z,5.53
2023-02-19T10:29:28.128Z,6.35
2023-02-19T10:34:36.363Z,5.72
2023-02-19T10:39:44.470Z,5.68
2023-02-19T10:44:52.640Z,6.32
2023-02-19T10:50:04.812Z,6.72
2023-02-19T10:55:24.377Z,6.53
2023-02-19T11:00:32.370Z,9.98
2023-02-19T11:05:43.538Z,7.18
2023-02-19T11:10:52.918Z,6.93
2023-02-19T11:15:59.225Z,6.35
2023-02-19T11:21:09.429Z,6.50
2023-02-19T11:26:21.478Z,9.57
2023-02-19T11:31:28.751Z,8.73
2023-02-19T11:36:38.702Z,7.30
2023-02-19T11:42:08.615Z,8.73
2023-02-19T11:47:41.377Z,6.18
2023-02-19T11:52:56.155Z,18.25
2023-02-19T11:58:12.623Z,41.70
2023-02-19T12:03:40.504Z,19.17
2023-02-19T12:09:09.553Z,11.38
2023-02-19T12:14:50.487Z,13.13
2023-02-19T12:20:07.425Z,10.20
2023-02-19T12:25:38.740Z,17.80
2023-02-19T12:30:55.266Z,14.18
2023-02-19T12:36:09.393Z,11.25
2023-02-19T12:41:33.432Z,24.00
2023-02-19T12:46:41.423Z,13.32
2023-02-19T12:51:50.302Z,8.38
2023-02-19T12:57:03.546Z,11.10
2023-02-19T13:02:16.878Z,9.10
2023-02-19T13:07:25.367Z,7.93
2023-02-19T13:12:37.630Z,8.07
2023-02-19T13:17:48.022Z,8.43
2023-02-19T13:23:14.189Z,7.40
2023-02-19T13:28:35.660Z,7.18
2023-02-19T13:33:48.706Z,8.15
2023-02-19T13:38:58.090Z,9.20
2023-02-19T13:44:09.879Z,14.32
2023-02-19T13:49:41.798Z,7.00
2023-02-19T13:54:47.706Z,7.25
2023-02-19T14:00:00.486Z,7.97
2023-02-19T14:05:15.900Z,8.38
2023-02-19T14:11:06.944Z,8.80
2023-02-19T14:16:35.764Z,8.48
2023-02-19T14:21:44.758Z,5.60
2023-02-19T14:26:51.319Z,6.65
2023-02-19T14:32:03.146Z,7.57
2023-02-19T14:37:10.971Z,5.97
2023-02-19T14:47:28.481Z,8.13
2023-02-19T14:52:41.170Z,6.45
2023-02-19T14:57:58.096Z,6.68
2023-02-19T15:03:25.770Z,8.77
2023-02-19T15:08:37.376Z,7.68
2023-02-19T15:13:46.772Z,6.90
2023-02-19T15:30:57.398Z,6.15
2023-02-19T15:36:17.454Z,6.82
2023-02-19T15:47:56.292Z,7.47
2023-02-19T15:53:42.501Z,9.38
2023-02-19T15:59:19.921Z,6.40
2023-02-19T16:10:31.698Z,14.18
2023-02-19T16:15:47.682Z,13.80
2023-02-19T16:27:05.620Z,13.35
2023-02-19T16:32:40.489Z,13.07
2023-02-19T16:38:02.086Z,8.73
2023-02-19T16:43:41.289Z,9.38
2023-02-19T16:48:48.152Z,10.30
2023-02-19T16:54:10.281Z,12.45
2023-02-19T16:59:20.242Z,12.38
2023-02-19T17:04:39.531Z,11.65
2023-02-19T17:09:50.483Z,10.68
2023-02-19T17:14:59.511Z,13.90
2023-02-19T17:20:36.346Z,12.60
2023-02-19T17:31:35.397Z,9.95
2023-02-19T17:37:38.598Z,9.85
2023-02-19T18:06:06.614Z,10.90
2023-02-19T19:54:47.833Z,9.25
2023-02-19T19:59:55.901Z,9.32
2023-02-19T20:05:15.999Z,10.85
2023-02-19T20:10:32.015Z,9.38
2023-02-19T21:58:19.377Z,10.40
2023-02-19T22:04:17.562Z,8.77
2023-02-19T22:15:48.457Z,6.80
2023-02-19T22:20:56.074Z,7.30
2023-02-19T22:33:05.245Z,5.35
2023-02-19T23:00:52.928Z,1.60
2023-02-19T23:12:31.804Z,0.93
2023-02-19T23:17:40.560Z,1.00
2023-02-19T23:22:53.764Z,0.68
2023-02-19T23:27:58.997Z,0.80
2023-02-19T23:33:33.001Z,1.17
2023-02-19T23:50:51.132Z,0.55
2023-02-19T23:56:10.078Z,0.60
